Vihari Weather



Vihari's Current Weather

Temprature 30.69o clear sky

clear sky

Rain: 0 %

Min Temprature30.69o
Max Temprature30.69o
Humidity41
Wind Speed4.73 m/h
Sun Rise05:12:49
Sun Set19:02:18
Current Time: 24-May-2022 08:34:18
Lat/Lon: 30.0333, 72.35




Vihari's Geo Location



Vihari's Weather Forecast

Time Overall Temp Min Temp Max Temp Humidity Wind Speed Rain
24-May-2022 (Tue)
11:00:00 clear sky 30.810 30.810 35.100 40 5.13 m/h 0 %
14:00:00 clear sky 35.560 35.560 39.010 26 4.47 m/h 0 %
17:00:00 clear sky 38.800 38.800 38.800 15 4.29 m/h 0 %
20:00:00 clear sky 33.780 33.780 33.780 22 4.05 m/h 0 %
23:00:00 clear sky 31.000 31.000 31.000 26 4.87 m/h 0 %
25-May-2022 (Wed)
02:00:00 clear sky 28.910 28.910 28.910 30 3.47 m/h 0 %
05:00:00 clear sky 27.940 27.940 27.940 32 3.17 m/h 0 %
08:00:00 clear sky 32.980 32.980 32.980 23 3.64 m/h 0 %
11:00:00 clear sky 38.300 38.300 38.300 15 1.99 m/h 0 %
14:00:00 clear sky 41.670 41.670 41.670 12 0.56 m/h 0 %
17:00:00 clear sky 41.630 41.630 41.630 11 0.7 m/h 0 %
20:00:00 clear sky 37.160 37.160 37.160 14 3.48 m/h 0 %
23:00:00 clear sky 34.420 34.420 34.420 16 3.77 m/h 0 %
26-May-2022 (Thu)
02:00:00 clear sky 31.980 31.980 31.980 22 3.72 m/h 0 %
05:00:00 clear sky 30.630 30.630 30.630 24 4.04 m/h 0 %
08:00:00 clear sky 37.000 37.000 37.000 15 5.57 m/h 0 %
11:00:00 clear sky 42.370 42.370 42.370 15 3.92 m/h 0 %
14:00:00 clear sky 46.010 46.010 46.010 9 3.65 m/h 0 %
17:00:00 clear sky 46.380 46.380 46.380 7 4.27 m/h 0 %
20:00:00 clear sky 39.910 39.910 39.910 11 2.39 m/h 0 %
23:00:00 clear sky 36.990 36.990 36.990 13 1.64 m/h 0 %
27-May-2022 (Fri)
02:00:00 clear sky 34.910 34.910 34.910 19 3.39 m/h 0 %
05:00:00 clear sky 32.440 32.440 32.440 41 5.52 m/h 0 %
08:00:00 clear sky 34.810 34.810 34.810 38 7.17 m/h 0 %
11:00:00 clear sky 42.080 42.080 42.080 21 5.55 m/h 0 %
14:00:00 clear sky 47.490 47.490 47.490 9 3.19 m/h 0 %
17:00:00 clear sky 47.900 47.900 47.900 5 2.92 m/h 0 %
20:00:00 clear sky 41.010 41.010 41.010 9 3.7 m/h 0 %
23:00:00 clear sky 38.810 38.810 38.810 17 6.55 m/h 0 %
28-May-2022 (Sat)
02:00:00 clear sky 34.310 34.310 34.310 10 5.51 m/h 0 %
05:00:00 clear sky 31.870 31.870 31.870 34 6.5 m/h 0 %
08:00:00 clear sky 38.030 38.030 38.030 15 8.57 m/h 0 %
11:00:00 clear sky 45.690 45.690 45.690 4 8.09 m/h 0 %
14:00:00 clear sky 47.900 47.900 47.900 4 5.51 m/h 0 %
17:00:00 clear sky 47.150 47.150 47.150 5 5.58 m/h 0 %
20:00:00 clear sky 40.190 40.190 40.190 7 3.43 m/h 0 %
23:00:00 clear sky 37.220 37.220 37.220 5 4.81 m/h 0 %
29-May-2022 (Sun)
02:00:00 clear sky 33.200 33.200 33.200 15 3.85 m/h 0 %
05:00:00 clear sky 30.090 30.090 30.090 22 3.45 m/h 0 %
08:00:00 clear sky 36.190 36.190 36.190 14 4.38 m/h 0 %

Famous Cities (61)